createdAt,value
2019-01-14T00:00:26.582Z,4.93
2019-01-14T00:02:55.264Z,4.96
2019-01-14T00:05:24.780Z,5.02
2019-01-14T00:07:53.453Z,5.08
2019-01-14T00:10:21.917Z,5.08
2019-01-14T00:12:50.444Z,5.08
2019-01-14T00:15:19.222Z,5.12
2019-01-14T00:17:47.905Z,5.14
2019-01-14T00:20:16.619Z,5.16
2019-01-14T00:22:45.207Z,5.15
2019-01-14T00:25:14.255Z,5.13
2019-01-14T00:27:42.757Z,5.11
2019-01-14T00:30:14.148Z,5.04
2019-01-14T00:32:42.669Z,5.04
2019-01-14T00:35:11.189Z,5.09
2019-01-14T00:37:39.715Z,5.07
2019-01-14T00:40:11.615Z,5.04
2019-01-14T00:42:41.283Z,4.96
2019-01-14T00:45:10.360Z,4.94
2019-01-14T00:47:38.817Z,4.94
2019-01-14T00:50:10.351Z,4.87
2019-01-14T00:52:39.010Z,4.84
2019-01-14T00:55:08.528Z,4.82
2019-01-14T00:57:37.210Z,4.75
2019-01-14T01:00:17.822Z,4.67
2019-01-14T01:02:46.380Z,4.60
2019-01-14T01:05:15.686Z,4.61
2019-01-14T01:07:44.419Z,4.60
2019-01-14T01:10:15.810Z,4.56
2019-01-14T01:12:44.286Z,4.55
2019-01-14T01:15:15.200Z,4.53
2019-01-14T01:17:43.692Z,4.54
2019-01-14T01:20:15.218Z,4.49
2019-01-14T01:22:43.820Z,4.46
2019-01-14T01:25:12.547Z,4.45
2019-01-14T01:27:41.087Z,4.47
2019-01-14T01:30:12.658Z,4.48
2019-01-14T01:32:41.166Z,4.51
2019-01-14T01:35:11.481Z,4.58
2019-01-14T01:37:40.115Z,4.61
2019-01-14T01:40:16.971Z,4.62
2019-01-14T01:42:45.724Z,4.59
2019-01-14T01:45:17.918Z,4.58
2019-01-14T01:47:46.553Z,4.62
2019-01-14T01:50:17.032Z,4.67
2019-01-14T01:52:45.637Z,4.68
2019-01-14T01:55:14.440Z,4.69
2019-01-14T01:57:43.044Z,4.74
2019-01-14T02:00:14.894Z,4.76
2019-01-14T02:02:43.359Z,4.80
2019-01-14T02:05:12.746Z,4.83
2019-01-14T02:07:42.158Z,4.83
2019-01-14T02:10:17.278Z,4.81
2019-01-14T02:12:46.160Z,4.84
2019-01-14T02:15:17.055Z,4.83
2019-01-14T02:17:45.664Z,4.85
2019-01-14T02:20:16.649Z,4.86
2019-01-14T02:22:45.289Z,4.87
2019-01-14T02:25:15.106Z,4.87
2019-01-14T02:27:43.763Z,4.85
2019-01-14T02:30:17.751Z,4.85
2019-01-14T02:32:46.313Z,4.93
2019-01-14T02:35:16.718Z,4.92
2019-01-14T02:37:45.307Z,4.93
2019-01-14T02:40:18.752Z,4.96
2019-01-14T02:42:47.357Z,4.98
2019-01-14T02:45:16.571Z,4.95
2019-01-14T02:47:46.120Z,4.93
2019-01-14T02:50:15.473Z,4.75
2019-01-14T02:52:44.026Z,4.54
2019-01-14T02:55:13.117Z,4.45
2019-01-14T02:57:41.978Z,4.43
2019-01-14T03:00:14.123Z,4.35
2019-01-14T03:02:42.650Z,4.35
2019-01-14T03:05:11.306Z,4.31
2019-01-14T03:07:40.028Z,4.33
2019-01-14T03:10:10.649Z,4.39
2019-01-14T03:12:39.678Z,4.44
2019-01-14T03:15:10.383Z,4.52
2019-01-14T03:17:38.900Z,4.49
2019-01-14T03:20:10.718Z,4.40
2019-01-14T03:22:39.300Z,4.34
2019-01-14T03:25:09.115Z,4.28
2019-01-14T03:27:37.760Z,4.27
2019-01-14T03:30:09.451Z,4.20
2019-01-14T03:32:37.980Z,4.14
2019-01-14T03:35:07.929Z,4.14
2019-01-14T03:37:36.395Z,4.05
2019-01-14T03:40:08.154Z,4.00
2019-01-14T03:42:36.747Z,4.00
2019-01-14T03:45:05.844Z,3.97
2019-01-14T03:47:34.305Z,3.92
2019-01-14T03:50:05.471Z,3.92
2019-01-14T03:52:33.917Z,3.86
2019-01-14T03:55:02.720Z,3.83
2019-01-14T03:57:31.473Z,3.86
2019-01-14T03:59:59.930Z,3.83
2019-01-14T04:02:28.396Z,3.84
2019-01-14T04:04:56.950Z,3.89
2019-01-14T04:07:25.424Z,3.90
2019-01-14T04:09:53.893Z,3.91
2019-01-14T04:12:22.478Z,3.91
2019-01-14T04:14:50.924Z,3.85
2019-01-14T04:17:22.123Z,3.76
2019-01-14T04:19:52.225Z,3.73
2019-01-14T04:22:20.784Z,3.71
2019-01-14T04:24:49.248Z,3.71
2019-01-14T04:27:17.784Z,3.75
2019-01-14T04:29:46.257Z,3.76
2019-01-14T04:32:14.746Z,3.74
2019-01-14T04:34:43.263Z,3.73
2019-01-14T04:37:11.727Z,3.64
2019-01-14T04:39:40.208Z,3.55
2019-01-14T04:42:08.929Z,3.50
2019-01-14T04:44:38.365Z,3.39
2019-01-14T04:47:06.901Z,3.23
2019-01-14T04:49:35.436Z,3.19
2019-01-14T04:52:04.930Z,3.24
2019-01-14T04:54:33.613Z,3.30
2019-01-14T04:57:02.133Z,3.36
2019-01-14T04:59:30.624Z,3.44
2019-01-14T05:01:59.157Z,3.54
2019-01-14T05:04:27.679Z,3.54
2019-01-14T05:06:56.270Z,3.52
2019-01-14T05:09:24.841Z,3.51
2019-01-14T05:11:53.373Z,3.54
2019-01-14T05:14:21.830Z,3.57
2019-01-14T05:16:50.298Z,3.55
2019-01-14T05:19:18.994Z,3.52
2019-01-14T05:21:47.635Z,3.49
2019-01-14T05:24:16.100Z,3.49
2019-01-14T05:26:45.672Z,3.44
2019-01-14T05:29:14.215Z,3.43
2019-01-14T05:31:42.831Z,3.39
2019-01-14T05:34:11.444Z,3.40
2019-01-14T05:36:41.011Z,3.38
2019-01-14T05:39:09.646Z,3.38
2019-01-14T05:41:38.427Z,3.34
2019-01-14T05:44:06.965Z,3.37
2019-01-14T05:46:35.490Z,3.40
2019-01-14T05:49:04.020Z,3.38
2019-01-14T05:51:32.507Z,3.48
2019-01-14T05:54:01.833Z,3.45
2019-01-14T05:56:30.361Z,3.44
2019-01-14T05:58:58.919Z,3.43
2019-01-14T06:01:28.055Z,3.39
2019-01-14T06:03:56.514Z,3.42
2019-01-14T06:06:24.975Z,3.45
2019-01-14T06:08:53.512Z,3.42
2019-01-14T06:11:22.031Z,3.40
2019-01-14T06:13:50.509Z,3.41
2019-01-14T06:16:19.053Z,3.41
2019-01-14T06:18:47.576Z,3.39
2019-01-14T06:21:16.331Z,3.45
2019-01-14T06:23:44.790Z,3.39
2019-01-14T06:26:13.316Z,3.43
2019-01-14T06:28:41.914Z,3.37
2019-01-14T06:31:10.391Z,3.32
2019-01-14T06:33:38.927Z,3.30
2019-01-14T06:36:07.455Z,3.30
2019-01-14T06:38:36.032Z,3.33
2019-01-14T06:41:04.619Z,3.36
2019-01-14T06:43:34.065Z,3.31
2019-01-14T06:46:03.570Z,3.28
2019-01-14T06:48:32.242Z,3.05
2019-01-14T06:51:01.706Z,2.84
2019-01-14T06:53:30.175Z,2.73
2019-01-14T06:55:58.833Z,2.62
2019-01-14T06:58:27.335Z,2.54
2019-01-14T07:00:55.976Z,2.45
2019-01-14T07:03:24.523Z,2.43
2019-01-14T07:05:53.145Z,2.38
2019-01-14T07:08:21.627Z,2.41
2019-01-14T07:10:52.084Z,2.39
2019-01-14T07:13:21.606Z,2.40
2019-01-14T07:15:50.084Z,2.45
2019-01-14T07:18:18.628Z,2.51
2019-01-14T07:20:47.112Z,2.55
2019-01-14T07:23:15.694Z,2.58
2019-01-14T07:25:44.352Z,2.56
2019-01-14T07:28:12.846Z,2.54
2019-01-14T07:30:41.486Z,2.50
2019-01-14T07:33:10.019Z,2.50
2019-01-14T07:35:38.555Z,2.50
2019-01-14T07:38:07.297Z,2.53
2019-01-14T07:40:35.883Z,2.51
2019-01-14T07:43:04.501Z,2.59
2019-01-14T07:45:32.983Z,2.70
2019-01-14T07:48:01.681Z,2.76
2019-01-14T07:50:30.196Z,2.90
2019-01-14T07:52:58.721Z,3.01
2019-01-14T07:55:27.322Z,3.07
2019-01-14T07:57:56.919Z,3.08
2019-01-14T08:00:25.918Z,3.00
2019-01-14T08:02:54.600Z,2.74
2019-01-14T08:05:23.205Z,2.56
2019-01-14T08:07:51.835Z,2.38
2019-01-14T08:10:20.499Z,2.10
2019-01-14T08:12:49.106Z,1.84
2019-01-14T08:15:20.859Z,1.23
2019-01-14T08:24:53.513Z,0.42
2019-01-14T08:27:21.985Z,0.30
2019-01-14T08:29:50.612Z,0.38
2019-01-14T08:32:19.135Z,0.49
2019-01-14T08:34:47.740Z,0.59
2019-01-14T08:37:16.330Z,0.66
2019-01-14T08:39:44.909Z,0.73
2019-01-14T08:42:13.743Z,0.78
2019-01-14T08:44:43.221Z,0.81
2019-01-14T08:47:11.739Z,0.81
2019-01-14T08:49:40.312Z,0.85
2019-01-14T08:52:08.927Z,0.85
2019-01-14T08:54:37.504Z,0.90
2019-01-14T08:57:06.090Z,0.96
2019-01-14T08:59:35.608Z,0.99
2019-01-14T09:02:04.266Z,1.04
2019-01-14T09:04:32.762Z,1.08
2019-01-14T09:07:01.331Z,1.15
2019-01-14T09:09:29.888Z,1.20
2019-01-14T09:12:00.357Z,1.27
2019-01-14T09:14:29.386Z,1.33
2019-01-14T09:16:57.973Z,1.43
2019-01-14T09:19:26.491Z,1.46
2019-01-14T09:21:55.023Z,1.59
2019-01-14T09:24:23.608Z,1.69
2019-01-14T09:26:52.218Z,1.83
2019-01-14T09:29:20.750Z,1.95
2019-01-14T09:31:49.779Z,2.00
2019-01-14T09:34:18.642Z,2.04
2019-01-14T09:36:47.167Z,2.01
2019-01-14T09:39:15.687Z,2.01
2019-01-14T09:41:44.246Z,2.00
2019-01-14T09:44:12.849Z,2.03
2019-01-14T09:46:41.465Z,2.10
2019-01-14T09:49:09.910Z,2.22
2019-01-14T09:51:39.342Z,2.32
2019-01-14T09:54:08.109Z,2.44
2019-01-14T09:56:36.648Z,2.52
2019-01-14T09:59:05.171Z,2.52
2019-01-14T10:01:34.654Z,2.51
2019-01-14T10:04:04.220Z,2.50
2019-01-14T10:06:32.912Z,2.49
2019-01-14T10:09:01.428Z,2.50
2019-01-14T10:11:29.885Z,2.50
2019-01-14T10:13:58.347Z,2.54
2019-01-14T10:16:27.934Z,2.56
2019-01-14T10:18:56.404Z,2.56
2019-01-14T10:21:24.903Z,2.51
2019-01-14T10:23:53.515Z,2.47
2019-01-14T10:26:22.056Z,2.42
2019-01-14T10:28:50.519Z,2.41
2019-01-14T10:31:20.056Z,2.42
2019-01-14T10:33:48.608Z,2.39
2019-01-14T10:36:17.080Z,2.42
2019-01-14T10:38:50.347Z,2.47
2019-01-14T10:41:16.212Z,2.47
2019-01-14T10:43:44.790Z,2.49
2019-01-14T10:46:13.337Z,2.63
2019-01-14T10:48:41.868Z,2.60
2019-01-14T10:51:10.400Z,2.62
2019-01-14T10:53:38.908Z,2.61
2019-01-14T10:56:07.442Z,2.72
2019-01-14T10:58:35.894Z,2.79
2019-01-14T11:01:04.637Z,2.79
2019-01-14T11:03:34.121Z,2.83
2019-01-14T11:06:02.809Z,2.93
2019-01-14T11:08:32.372Z,2.98
2019-01-14T11:11:00.834Z,2.91
2019-01-14T11:13:29.292Z,2.62
2019-01-14T11:15:58.278Z,2.49
2019-01-14T11:18:26.827Z,2.55
2019-01-14T11:20:55.342Z,2.52
2019-01-14T11:23:23.872Z,2.44
2019-01-14T11:25:52.402Z,2.42
2019-01-14T11:28:21.002Z,2.51
2019-01-14T11:30:49.567Z,2.47
2019-01-14T11:33:19.054Z,2.34
2019-01-14T11:35:48.651Z,2.35
2019-01-14T11:38:39.002Z,2.47
2019-01-14T11:41:07.532Z,2.50
2019-01-14T11:43:35.991Z,2.66
2019-01-14T11:46:04.844Z,2.72
2019-01-14T11:48:33.440Z,2.82
2019-01-14T11:51:02.153Z,2.78
2019-01-14T11:53:30.788Z,2.85
2019-01-14T11:55:59.244Z,2.98
2019-01-14T11:58:27.767Z,3.06
2019-01-14T12:00:56.356Z,2.91
2019-01-14T12:03:24.949Z,3.11
2019-01-14T12:05:53.589Z,3.23
2019-01-14T12:08:22.249Z,3.13
2019-01-14T12:10:50.867Z,3.44
2019-01-14T12:13:19.328Z,3.39
2019-01-14T12:15:47.906Z,3.47
2019-01-14T12:18:17.385Z,3.78
2019-01-14T12:20:46.830Z,4.02
2019-01-14T12:23:15.444Z,4.11
2019-01-14T12:25:43.925Z,4.05
2019-01-14T12:28:12.455Z,4.24
2019-01-14T12:30:41.777Z,4.44
2019-01-14T12:33:10.447Z,4.47
2019-01-14T12:35:38.971Z,4.46
2019-01-14T12:38:08.133Z,4.38
2019-01-14T12:40:36.647Z,4.10
2019-01-14T12:43:05.445Z,4.06
2019-01-14T12:45:34.410Z,3.41
2019-01-14T12:48:03.091Z,3.02
2019-01-14T12:50:31.630Z,2.80
2019-01-14T12:53:00.247Z,3.17
2019-01-14T12:55:28.779Z,3.55
2019-01-14T12:57:57.293Z,3.32
2019-01-14T13:00:27.771Z,3.20
2019-01-14T13:02:58.520Z,3.48
2019-01-14T13:05:28.543Z,3.61
2019-01-14T13:07:58.015Z,2.25
2019-01-14T13:10:26.471Z,1.64
2019-01-14T13:12:55.041Z,1.31
2019-01-14T13:15:25.588Z,1.29
2019-01-14T13:17:54.315Z,1.48
2019-01-14T13:20:23.418Z,1.71
2019-01-14T13:22:52.174Z,1.74
2019-01-14T13:25:21.190Z,1.80
2019-01-14T13:27:49.992Z,1.69
2019-01-14T13:30:24.155Z,1.43
2019-01-14T13:32:52.782Z,1.26
2019-01-14T13:35:21.284Z,1.15
2019-01-14T13:37:56.495Z,1.10
2019-01-14T13:40:25.049Z,1.19
2019-01-14T13:42:53.600Z,1.49
2019-01-14T13:45:23.249Z,1.65
2019-01-14T13:47:51.759Z,1.83
2019-01-14T13:50:22.842Z,3.10
2019-01-14T13:52:51.496Z,4.25
2019-01-14T13:55:20.586Z,5.13
2019-01-14T13:57:49.174Z,4.95
2019-01-14T14:00:20.240Z,4.04
2019-01-14T14:02:48.791Z,3.25
2019-01-14T14:05:17.303Z,2.73
2019-01-14T14:07:45.898Z,2.37
2019-01-14T14:10:21.178Z,2.14
2019-01-14T14:12:49.719Z,1.96
2019-01-14T14:15:19.289Z,1.70
2019-01-14T14:17:47.999Z,1.58
2019-01-14T14:20:18.109Z,1.44
2019-01-14T14:22:46.632Z,0.97
2019-01-14T14:25:15.263Z,0.64
2019-01-14T14:27:43.784Z,0.19
2019-01-14T14:30:21.226Z,-0.25
2019-01-14T14:32:49.682Z,-0.63
2019-01-14T14:35:21.047Z,-0.94
2019-01-14T14:37:50.695Z,-1.20
2019-01-14T14:40:19.166Z,-1.63
2019-01-14T14:42:47.697Z,-1.63
2019-01-14T14:45:16.657Z,-1.71
2019-01-14T14:47:45.279Z,-1.97
2019-01-14T14:50:18.436Z,-2.32
2019-01-14T14:52:47.394Z,-2.46
2019-01-14T14:55:16.533Z,-2.51
2019-01-14T14:57:45.161Z,-2.51
2019-01-14T15:00:21.305Z,-2.52
2019-01-14T15:02:49.944Z,-2.51
2019-01-14T15:05:19.437Z,-2.53
2019-01-14T15:07:48.303Z,-2.61
2019-01-14T15:10:18.962Z,-2.68
2019-01-14T15:12:49.394Z,-2.68
2019-01-14T15:15:19.676Z,-2.74
2019-01-14T15:17:48.293Z,-2.84
2019-01-14T15:20:19.341Z,-2.92
2019-01-14T15:22:47.949Z,-2.94
2019-01-14T15:25:16.504Z,-2.95
2019-01-14T15:27:45.931Z,-2.93
2019-01-14T15:30:20.284Z,-2.87
2019-01-14T15:32:48.812Z,-2.78
2019-01-14T15:35:17.385Z,-2.66
2019-01-14T15:37:46.840Z,-2.59
2019-01-14T15:40:17.552Z,-2.51
2019-01-14T15:42:46.266Z,-2.44
2019-01-14T15:45:18.833Z,-2.36
2019-01-14T15:47:47.451Z,-2.34
2019-01-14T15:50:16.169Z,-2.31
2019-01-14T15:52:44.773Z,-2.29
2019-01-14T15:55:21.598Z,-2.28
2019-01-14T15:57:51.536Z,-2.25
2019-01-14T16:00:20.461Z,-2.23
2019-01-14T16:02:49.229Z,-2.20
2019-01-14T16:05:19.153Z,-2.13
2019-01-14T16:07:48.043Z,-2.08
2019-01-14T16:10:22.911Z,-2.00
2019-01-14T16:12:51.437Z,-1.97
2019-01-14T16:15:20.835Z,-1.92
2019-01-14T16:17:49.467Z,-1.90
2019-01-14T16:20:22.629Z,-1.92
2019-01-14T16:22:51.095Z,-1.95
2019-01-14T16:25:19.623Z,-2.00
2019-01-14T16:27:48.475Z,-2.02
2019-01-14T16:30:19.256Z,-2.04
2019-01-14T16:32:48.825Z,-2.05
2019-01-14T16:35:17.494Z,-2.03
2019-01-14T16:37:46.499Z,-2.07
2019-01-14T16:40:18.237Z,-2.09
2019-01-14T16:42:46.417Z,-2.15
2019-01-14T16:45:20.384Z,-2.17
2019-01-14T16:47:48.872Z,-2.22
2019-01-14T16:50:17.787Z,-2.20
2019-01-14T16:52:46.340Z,-2.22
2019-01-14T16:55:16.565Z,-2.25
2019-01-14T16:57:45.113Z,-2.29
2019-01-14T17:00:16.373Z,-2.33
2019-01-14T17:02:45.149Z,-2.32
2019-01-14T17:05:14.500Z,-2.34
2019-01-14T17:07:43.136Z,-2.37
2019-01-14T17:10:16.229Z,-2.39
2019-01-14T17:12:45.005Z,-2.38
2019-01-14T17:15:14.121Z,-2.38
2019-01-14T17:17:43.556Z,-2.37
2019-01-14T17:20:18.368Z,-2.36
2019-01-14T17:22:47.475Z,-2.40
2019-01-14T17:25:16.783Z,-2.40
2019-01-14T17:27:45.447Z,-2.38
2019-01-14T17:30:15.984Z,-2.35
2019-01-14T17:32:44.971Z,-2.34
2019-01-14T17:35:14.603Z,-2.38
2019-01-14T17:37:43.247Z,-2.42
2019-01-14T17:40:14.299Z,-2.41
2019-01-14T17:42:42.832Z,-2.39
2019-01-14T17:45:11.839Z,-2.38
2019-01-14T17:47:40.647Z,-2.36
2019-01-14T17:50:12.182Z,-2.33
2019-01-14T17:52:40.719Z,-2.37
2019-01-14T17:55:09.613Z,-2.40
2019-01-14T17:57:38.146Z,-2.40
2019-01-14T18:00:18.612Z,-2.44
2019-01-14T18:02:47.276Z,-2.48
2019-01-14T18:05:15.920Z,-2.51
2019-01-14T18:07:44.487Z,-2.53
2019-01-14T18:10:15.623Z,-2.53
2019-01-14T18:12:44.162Z,-2.54
2019-01-14T18:15:13.208Z,-2.51
2019-01-14T18:17:42.935Z,-2.53
2019-01-14T18:20:14.234Z,-2.53
2019-01-14T18:22:43.721Z,-2.53
2019-01-14T18:25:12.518Z,-2.51
2019-01-14T18:27:41.026Z,-2.51
2019-01-14T18:30:18.012Z,-2.46
2019-01-14T18:32:46.755Z,-2.39
2019-01-14T18:35:17.181Z,-2.37
2019-01-14T18:37:46.666Z,-2.36
2019-01-14T18:40:16.665Z,-2.35
2019-01-14T18:42:45.274Z,-2.24
2019-01-14T18:45:15.850Z,-2.15
2019-01-14T18:47:44.578Z,-2.05
2019-01-14T18:50:15.483Z,-1.99
2019-01-14T18:52:44.087Z,-1.93
2019-01-14T18:55:12.896Z,-1.95
2019-01-14T18:57:41.348Z,-1.96
2019-01-14T19:00:13.295Z,-1.92
2019-01-14T19:02:41.767Z,-1.85
2019-01-14T19:05:10.311Z,-1.85
2019-01-14T19:07:38.899Z,-1.81
2019-01-14T19:10:10.192Z,-1.80
2019-01-14T19:12:38.715Z,-1.71
2019-01-14T19:15:10.318Z,-1.72
2019-01-14T19:17:38.891Z,-1.71
2019-01-14T19:20:10.406Z,-1.78
2019-01-14T19:22:39.167Z,-1.82
2019-01-14T19:25:08.556Z,-1.88
2019-01-14T19:27:37.100Z,-1.86
2019-01-14T19:30:08.673Z,-1.88
2019-01-14T19:32:38.550Z,-1.92
2019-01-14T19:35:07.614Z,-1.94
2019-01-14T19:37:36.630Z,-1.97
2019-01-14T19:40:08.162Z,-1.98
2019-01-14T19:42:36.626Z,-1.96
2019-01-14T19:45:06.787Z,-2.00
2019-01-14T19:47:35.253Z,-2.06
2019-01-14T19:50:07.043Z,-2.03
2019-01-14T19:52:35.575Z,-2.06
2019-01-14T19:55:05.075Z,-2.03
2019-01-14T19:57:33.625Z,-2.03
2019-01-14T20:00:02.151Z,-2.05
2019-01-14T20:02:30.647Z,-2.09
2019-01-14T20:04:59.156Z,-2.03
2019-01-14T20:07:27.702Z,-1.97
2019-01-14T20:09:56.165Z,-1.97
2019-01-14T20:12:24.809Z,-1.93
2019-01-14T20:14:53.338Z,-1.95
2019-01-14T20:17:21.806Z,-1.90
2019-01-14T20:19:50.289Z,-1.87
2019-01-14T20:22:18.980Z,-1.89
2019-01-14T20:24:48.628Z,-1.83
2019-01-14T20:27:17.111Z,-1.85
2019-01-14T20:29:45.653Z,-1.82
2019-01-14T20:32:14.201Z,-1.77
2019-01-14T20:34:42.744Z,-1.72
2019-01-14T20:37:12.406Z,-1.71
2019-01-14T20:39:40.934Z,-1.69
2019-01-14T20:42:09.471Z,-1.69
2019-01-14T20:44:38.010Z,-1.72
2019-01-14T20:47:07.451Z,-1.78
2019-01-14T20:49:35.920Z,-1.81
2019-01-14T20:52:04.505Z,-1.79
2019-01-14T20:54:33.057Z,-1.80
2019-01-14T20:57:04.791Z,-1.84
2019-01-14T20:59:38.350Z,-1.85
2019-01-14T21:02:04.988Z,-1.84
2019-01-14T21:04:33.465Z,-1.87
2019-01-14T21:07:02.213Z,-1.90
2019-01-14T21:09:30.684Z,-1.91
2019-01-14T21:11:59.169Z,-1.94
2019-01-14T21:14:29.076Z,-1.99
2019-01-14T21:16:57.579Z,-2.01
2019-01-14T21:19:26.073Z,-1.97
2019-01-14T21:21:54.727Z,-1.99
2019-01-14T21:24:24.179Z,-2.04
2019-01-14T21:26:52.893Z,-2.07
2019-01-14T21:29:25.938Z,-2.18
2019-01-14T21:31:51.697Z,-2.26
2019-01-14T21:34:20.243Z,-2.37
2019-01-14T21:36:48.897Z,-2.40
2019-01-14T21:39:17.382Z,-2.49
2019-01-14T21:41:45.965Z,-2.50
2019-01-14T21:44:14.495Z,-2.52
2019-01-14T21:46:43.158Z,-2.54
2019-01-14T21:49:11.623Z,-2.60
2019-01-14T21:51:40.321Z,-2.57
2019-01-14T21:54:08.917Z,-2.52
2019-01-14T21:56:38.910Z,-2.49
2019-01-14T21:59:07.687Z,-2.44
2019-01-14T22:01:36.158Z,-2.42
2019-01-14T22:04:04.983Z,-2.37
2019-01-14T22:06:33.519Z,-2.31
2019-01-14T22:09:02.163Z,-2.26
2019-01-14T22:11:30.623Z,-2.24
2019-01-14T22:13:59.221Z,-2.23
2019-01-14T22:16:27.859Z,-2.22
2019-01-14T22:18:57.335Z,-2.20
2019-01-14T22:21:25.850Z,-2.19
2019-01-14T22:23:54.405Z,-2.16
2019-01-14T22:26:22.919Z,-2.16
2019-01-14T22:28:52.361Z,-2.04
2019-01-14T22:31:20.877Z,-1.94
2019-01-14T22:33:49.337Z,-1.82
2019-01-14T22:36:17.888Z,-1.76
2019-01-14T22:38:46.431Z,-1.68
2019-01-14T22:41:15.890Z,-1.62
2019-01-14T22:43:44.444Z,-1.52
2019-01-14T22:46:13.012Z,-1.43
2019-01-14T22:48:41.484Z,-1.34
2019-01-14T22:51:10.452Z,-1.30
2019-01-14T22:53:39.003Z,-1.23
2019-01-14T22:56:07.734Z,-1.19
2019-01-14T22:58:36.303Z,-1.15
2019-01-14T23:01:09.473Z,-1.11
2019-01-14T23:03:39.081Z,-1.07
2019-01-14T23:06:07.614Z,-1.02
2019-01-14T23:08:36.223Z,-1.02
2019-01-14T23:11:05.150Z,-1.01
2019-01-14T23:13:33.725Z,-0.98
2019-01-14T23:16:02.255Z,-0.96
2019-01-14T23:18:30.716Z,-0.95
2019-01-14T23:20:59.355Z,-0.92
2019-01-14T23:23:27.827Z,-0.89
2019-01-14T23:25:58.279Z,-0.90
2019-01-14T23:28:26.965Z,-0.85
2019-01-14T23:30:56.436Z,-0.85
2019-01-14T23:33:24.991Z,-0.82
2019-01-14T23:35:53.580Z,-0.82
2019-01-14T23:38:22.042Z,-0.82
2019-01-14T23:40:50.817Z,-0.81
2019-01-14T23:43:19.485Z,-0.78
2019-01-14T23:45:48.007Z,-0.80
2019-01-14T23:48:16.502Z,-0.84
2019-01-14T23:50:45.047Z,-0.84
2019-01-14T23:53:13.527Z,-0.81
2019-01-14T23:55:41.980Z,-0.86
2019-01-14T23:58:10.501Z,-0.78
